createdAt,value
2023-02-19T00:01:54.876Z,21.10
2023-02-19T00:04:23.940Z,22.20
2023-02-19T00:06:52.195Z,21.30
2023-02-19T00:09:21.740Z,20.50
2023-02-19T00:11:50.494Z,19.80
2023-02-19T00:14:21.632Z,20.20
2023-02-19T00:16:50.373Z,21.00
2023-02-19T00:19:20.990Z,21.40
2023-02-19T00:21:52.738Z,21.70
2023-02-19T00:24:22.143Z,22.80
2023-02-19T00:26:50.614Z,23.60
2023-02-19T00:29:21.601Z,22.20
2023-02-19T00:31:51.211Z,20.20
2023-02-19T00:34:19.886Z,20.20
2023-02-19T00:36:48.424Z,21.60
2023-02-19T00:39:18.731Z,20.50
2023-02-19T00:41:47.848Z,18.10
2023-02-19T00:44:16.244Z,22.50
2023-02-19T00:46:47.052Z,17.50
2023-02-19T00:49:23.390Z,19.40
2023-02-19T00:51:53.246Z,20.90
2023-02-19T00:54:22.959Z,19.00
2023-02-19T00:56:51.796Z,22.90
2023-02-19T00:59:20.745Z,24.80
2023-02-19T01:01:49.967Z,20.60
2023-02-19T01:04:19.266Z,21.50
2023-02-19T01:06:49.125Z,20.10
2023-02-19T01:09:17.524Z,20.50
2023-02-19T01:11:46.055Z,20.20
2023-02-19T01:14:14.182Z,18.60
2023-02-19T01:16:42.503Z,20.50
2023-02-19T01:19:10.648Z,20.00
2023-02-19T01:21:40.961Z,19.40
2023-02-19T01:24:11.436Z,19.50
2023-02-19T01:26:40.731Z,19.00
2023-02-19T01:29:09.802Z,19.00
2023-02-19T01:31:40.076Z,19.40
2023-02-19T01:34:12.337Z,21.50
2023-02-19T01:36:41.293Z,21.00
2023-02-19T01:39:10.877Z,18.80
2023-02-19T01:41:41.134Z,21.10
2023-02-19T01:44:12.884Z,19.20
2023-02-19T01:46:51.600Z,18.50
2023-02-19T01:49:28.411Z,18.10
2023-02-19T01:52:02.300Z,19.80
2023-02-19T01:54:37.240Z,18.60
2023-02-19T01:57:08.548Z,17.50
2023-02-19T01:59:37.274Z,17.90
2023-02-19T02:02:06.686Z,20.50
2023-02-19T02:04:36.191Z,19.90
2023-02-19T02:07:29.687Z,21.00
2023-02-19T02:10:16.817Z,15.80
2023-02-19T02:12:45.159Z,19.20
2023-02-19T02:15:15.187Z,18.60
2023-02-19T02:17:57.590Z,17.40
2023-02-19T02:20:44.685Z,16.70
2023-02-19T02:23:28.682Z,18.30
2023-02-19T02:25:56.966Z,17.10
2023-02-19T02:28:34.629Z,17.60
2023-02-19T02:31:17.455Z,19.20
2023-02-19T02:34:06.309Z,17.20
2023-02-19T02:36:41.800Z,17.00
2023-02-19T02:39:14.384Z,17.00
2023-02-19T02:42:13.461Z,14.10
2023-02-19T02:45:03.471Z,16.00
2023-02-19T02:47:41.258Z,15.40
2023-02-19T02:50:15.888Z,14.90
2023-02-19T02:53:08.092Z,16.50
2023-02-19T02:55:43.641Z,16.10
2023-02-19T02:58:14.821Z,15.20
2023-02-19T03:01:04.879Z,16.20
2023-02-19T03:03:37.369Z,16.70
2023-02-19T03:06:09.445Z,15.30
2023-02-19T03:08:44.096Z,17.30
2023-02-19T03:11:31.681Z,16.90
2023-02-19T03:14:27.505Z,13.40
2023-02-19T03:17:20.668Z,16.30
2023-02-19T03:19:54.499Z,18.40
2023-02-19T03:22:31.607Z,24.40
2023-02-19T03:25:26.356Z,21.90
2023-02-19T03:27:58.688Z,20.00
2023-02-19T03:30:35.619Z,22.90
2023-02-19T03:33:10.309Z,20.80
2023-02-19T03:35:45.068Z,38.10
2023-02-19T03:38:27.136Z,19.30
2023-02-19T03:41:20.929Z,22.10
2023-02-19T03:44:07.962Z,17.60
2023-02-19T03:46:48.740Z,19.60
2023-02-19T03:49:30.016Z,18.50
2023-02-19T03:52:09.150Z,20.50
2023-02-19T03:55:06.753Z,19.30
2023-02-19T03:57:51.691Z,20.00
2023-02-19T04:00:38.916Z,17.50
2023-02-19T04:03:18.664Z,16.20
2023-02-19T04:05:52.205Z,15.80
2023-02-19T04:08:23.617Z,17.00
2023-02-19T04:10:58.464Z,18.10
2023-02-19T04:13:33.119Z,15.30
2023-02-19T04:16:08.309Z,16.40
2023-02-19T04:18:43.988Z,15.00
2023-02-19T04:21:13.589Z,15.70
2023-02-19T04:23:44.747Z,16.80
2023-02-19T04:26:15.591Z,14.60
2023-02-19T04:28:44.550Z,14.40
2023-02-19T04:31:13.154Z,14.10
2023-02-19T04:33:41.611Z,13.50
2023-02-19T04:36:11.848Z,16.50
2023-02-19T04:38:40.219Z,14.70
2023-02-19T04:41:09.944Z,13.20
2023-02-19T04:43:38.433Z,15.90
2023-02-19T04:46:07.165Z,15.70
2023-02-19T04:48:35.483Z,19.40
2023-02-19T04:51:07.945Z,19.00
2023-02-19T04:53:37.362Z,16.80
2023-02-19T04:56:11.797Z,15.90
2023-02-19T04:58:41.420Z,14.70
2023-02-19T05:01:11.139Z,15.60
2023-02-19T05:03:39.771Z,17.20
2023-02-19T05:06:12.779Z,20.10
2023-02-19T05:08:41.887Z,21.90
2023-02-19T05:11:12.678Z,17.60
2023-02-19T05:13:41.453Z,24.90
2023-02-19T05:16:16.378Z,28.40
2023-02-19T05:18:46.790Z,24.80
2023-02-19T05:21:16.182Z,21.50
2023-02-19T05:23:44.554Z,17.70
2023-02-19T05:26:19.813Z,16.30
2023-02-19T05:28:51.235Z,14.80
2023-02-19T05:31:21.285Z,23.00
2023-02-19T05:33:53.050Z,33.00
2023-02-19T05:36:22.531Z,50.60
2023-02-19T05:38:55.622Z,37.80
2023-02-19T05:41:27.445Z,40.00
2023-02-19T05:43:56.996Z,44.60
2023-02-19T05:46:28.051Z,53.10
2023-02-19T05:48:58.315Z,50.90
2023-02-19T05:51:28.005Z,50.10
2023-02-19T05:53:57.690Z,37.40
2023-02-19T05:56:40.018Z,44.00
2023-02-19T05:59:13.286Z,38.40
2023-02-19T06:01:41.870Z,33.00
2023-02-19T06:04:11.881Z,35.70
2023-02-19T06:06:41.228Z,36.30
2023-02-19T06:09:10.713Z,49.90
2023-02-19T06:11:40.102Z,35.40
2023-02-19T06:14:08.352Z,41.90
2023-02-19T06:16:36.457Z,39.60
2023-02-19T06:19:04.996Z,42.00
2023-02-19T06:21:33.157Z,79.20
2023-02-19T06:24:09.163Z,67.00
2023-02-19T06:26:38.656Z,77.20
2023-02-19T06:29:07.215Z,84.60
2023-02-19T06:31:35.376Z,64.60
2023-02-19T06:34:05.190Z,33.20
2023-02-19T06:36:33.653Z,23.90
2023-02-19T06:39:04.265Z,15.20
2023-02-19T06:41:32.758Z,15.50
2023-02-19T06:44:01.755Z,18.20
2023-02-19T06:46:30.489Z,18.50
2023-02-19T06:48:59.168Z,12.00
2023-02-19T06:51:29.903Z,13.90
2023-02-19T06:53:58.968Z,12.00
2023-02-19T06:56:30.488Z,12.50
2023-02-19T06:59:01.344Z,13.20
2023-02-19T07:01:31.684Z,12.00
2023-02-19T07:04:00.409Z,12.10
2023-02-19T07:06:29.302Z,15.60
2023-02-19T07:08:58.974Z,16.40
2023-02-19T07:11:30.423Z,31.60
2023-02-19T07:14:00.966Z,12.50
2023-02-19T07:16:30.170Z,14.90
2023-02-19T07:19:00.180Z,16.90
2023-02-19T07:21:29.515Z,13.30
2023-02-19T07:23:58.785Z,13.60
2023-02-19T07:26:27.089Z,11.80
2023-02-19T07:28:55.227Z,14.00
2023-02-19T07:31:24.956Z,9.70
2023-02-19T07:33:53.188Z,11.00
2023-02-19T07:36:24.268Z,12.00
2023-02-19T07:39:00.106Z,15.70
2023-02-19T07:41:28.449Z,10.60
2023-02-19T07:43:59.175Z,9.90
2023-02-19T07:46:28.027Z,11.70
2023-02-19T07:48:56.160Z,9.30
2023-02-19T07:51:24.483Z,9.60
2023-02-19T07:53:52.864Z,13.70
2023-02-19T07:56:21.359Z,11.50
2023-02-19T07:58:50.160Z,12.00
2023-02-19T08:01:40.876Z,16.20
2023-02-19T08:04:11.681Z,11.30
2023-02-19T08:06:40.780Z,10.40
2023-02-19T08:09:09.795Z,10.80
2023-02-19T08:11:56.688Z,12.20
2023-02-19T08:14:29.290Z,9.50
2023-02-19T08:16:57.657Z,10.40
2023-02-19T08:19:25.829Z,8.80
2023-02-19T08:21:54.525Z,9.70
2023-02-19T08:24:22.788Z,12.30
2023-02-19T08:26:51.009Z,11.30
2023-02-19T08:29:19.444Z,9.30
2023-02-19T08:31:48.152Z,8.50
2023-02-19T08:34:16.433Z,9.20
2023-02-19T08:36:44.798Z,9.20
2023-02-19T08:39:13.316Z,8.00
2023-02-19T08:41:41.755Z,7.70
2023-02-19T08:44:10.116Z,8.50
2023-02-19T08:46:38.436Z,8.30
2023-02-19T08:49:06.590Z,10.00
2023-02-19T08:51:34.772Z,10.70
2023-02-19T08:54:04.696Z,8.20
2023-02-19T08:56:32.855Z,8.70
2023-02-19T08:59:01.239Z,7.40
2023-02-19T09:01:29.373Z,8.60
2023-02-19T09:03:57.697Z,10.30
2023-02-19T09:06:26.197Z,10.70
2023-02-19T09:08:54.561Z,10.30
2023-02-19T09:11:22.697Z,7.50
2023-02-19T09:13:50.808Z,6.40
2023-02-19T09:16:19.282Z,6.40
2023-02-19T09:18:47.312Z,8.30
2023-02-19T09:21:15.944Z,9.90
2023-02-19T09:23:44.001Z,8.50
2023-02-19T09:26:14.262Z,9.90
2023-02-19T09:28:42.424Z,8.70
2023-02-19T09:31:13.506Z,9.00
2023-02-19T09:33:46.818Z,7.90
2023-02-19T09:36:16.737Z,8.60
2023-02-19T09:38:45.884Z,9.40
2023-02-19T09:41:32.411Z,7.80
2023-02-19T09:44:04.238Z,7.90
2023-02-19T09:46:38.882Z,8.30
2023-02-19T09:49:17.173Z,6.20
2023-02-19T09:52:00.720Z,8.00
2023-02-19T09:54:31.733Z,8.00
2023-02-19T09:57:04.361Z,9.00
2023-02-19T09:59:42.186Z,9.90
2023-02-19T10:02:17.552Z,22.90
2023-02-19T10:04:47.189Z,11.40
2023-02-19T10:07:19.375Z,10.10
2023-02-19T10:10:17.949Z,10.50
2023-02-19T10:12:50.690Z,8.20
2023-02-19T10:15:46.805Z,9.00
2023-02-19T10:18:22.407Z,9.10
2023-02-19T10:20:52.605Z,9.90
2023-02-19T10:23:21.437Z,11.10
2023-02-19T10:25:59.167Z,10.60
2023-02-19T10:28:30.543Z,11.90
2023-02-19T10:31:01.578Z,9.60
2023-02-19T10:33:30.113Z,11.40
2023-02-19T10:36:07.963Z,8.30
2023-02-19T10:38:40.513Z,7.80
2023-02-19T10:41:12.824Z,7.80
2023-02-19T10:43:45.985Z,7.90
2023-02-19T10:46:22.987Z,7.20
2023-02-19T10:48:55.415Z,7.80
2023-02-19T10:51:36.487Z,8.50
2023-02-19T10:54:15.677Z,12.00
2023-02-19T10:56:43.831Z,8.40
2023-02-19T10:59:19.258Z,8.50
2023-02-19T11:02:00.604Z,6.90
2023-02-19T11:04:36.512Z,6.50
2023-02-19T11:07:15.172Z,6.30
2023-02-19T11:09:46.261Z,5.60
2023-02-19T11:12:23.662Z,7.70
2023-02-19T11:14:51.941Z,5.80
2023-02-19T11:17:30.765Z,5.90
2023-02-19T11:20:04.836Z,5.60
2023-02-19T11:22:39.716Z,5.00
2023-02-19T11:25:25.720Z,6.40
2023-02-19T11:28:08.267Z,7.40
2023-02-19T11:30:42.571Z,6.00
2023-02-19T11:33:17.081Z,7.60
2023-02-19T11:35:46.564Z,5.70
2023-02-19T11:38:17.423Z,6.40
2023-02-19T11:40:57.782Z,13.40
2023-02-19T11:43:54.569Z,9.40
2023-02-19T11:46:35.291Z,8.40
2023-02-19T11:49:45.027Z,10.80
2023-02-19T11:52:37.702Z,11.40
2023-02-19T11:55:21.723Z,9.30
2023-02-19T11:58:05.056Z,11.00
2023-02-19T12:00:45.039Z,13.40
2023-02-19T12:03:28.544Z,10.60
2023-02-19T12:06:24.105Z,9.90
2023-02-19T12:09:16.613Z,12.50
2023-02-19T12:12:13.965Z,6.80
2023-02-19T12:15:17.796Z,10.50
2023-02-19T12:18:05.850Z,8.20
2023-02-19T12:20:44.333Z,6.50
2023-02-19T12:23:35.862Z,10.40
2023-02-19T12:26:17.040Z,9.50
2023-02-19T12:28:57.713Z,6.00
2023-02-19T12:31:51.413Z,6.60
2023-02-19T12:34:44.034Z,8.70
2023-02-19T12:37:28.362Z,27.90
2023-02-19T12:40:12.020Z,17.70
2023-02-19T12:42:52.797Z,12.60
2023-02-19T12:45:45.510Z,15.00
2023-02-19T12:48:35.843Z,14.50
2023-02-19T12:51:21.374Z,9.00
2023-02-19T12:53:49.611Z,6.30
2023-02-19T12:56:23.639Z,9.70
2023-02-19T12:59:24.240Z,4.30
2023-02-19T13:02:03.295Z,3.50
2023-02-19T13:04:43.491Z,4.10
2023-02-19T13:07:19.023Z,5.10
2023-02-19T13:10:04.680Z,5.10
2023-02-19T13:12:38.965Z,4.80
2023-02-19T13:15:18.977Z,5.70
2023-02-19T13:17:51.575Z,3.10
2023-02-19T13:20:37.270Z,4.10
2023-02-19T13:24:03.256Z,8.70
2023-02-19T13:27:05.734Z,6.80
2023-02-19T13:29:50.707Z,9.50
2023-02-19T13:33:07.619Z,10.20
2023-02-19T13:35:57.404Z,6.30
2023-02-19T13:38:26.191Z,6.50
2023-02-19T13:40:57.817Z,5.40
2023-02-19T13:43:40.403Z,6.50
2023-02-19T13:46:12.396Z,7.10
2023-02-19T13:48:42.652Z,7.30
2023-02-19T13:51:17.483Z,6.40
2023-02-19T13:53:45.737Z,7.90
2023-02-19T13:56:35.556Z,8.10
2023-02-19T13:59:37.214Z,5.70
2023-02-19T14:02:26.830Z,4.90
2023-02-19T14:05:13.365Z,6.20
2023-02-19T14:07:50.551Z,8.90
2023-02-19T14:10:41.083Z,8.20
2023-02-19T14:13:09.615Z,9.60
2023-02-19T14:15:49.889Z,6.20
2023-02-19T14:18:43.285Z,9.20
2023-02-19T14:21:26.142Z,7.60
2023-02-19T14:23:58.040Z,9.20
2023-02-19T14:26:27.399Z,8.10
2023-02-19T14:28:56.273Z,11.20
2023-02-19T14:31:34.291Z,10.50
2023-02-19T14:34:07.055Z,8.70
2023-02-19T14:36:50.352Z,8.50
2023-02-19T14:39:35.339Z,10.10
2023-02-19T14:42:14.380Z,9.50
2023-02-19T14:44:51.553Z,10.50
2023-02-19T14:47:26.168Z,9.60
2023-02-19T14:49:58.387Z,8.00
2023-02-19T14:52:36.991Z,14.00
2023-02-19T14:55:30.560Z,11.50
2023-02-19T14:58:01.360Z,9.10
2023-02-19T15:00:34.298Z,8.30
2023-02-19T15:03:03.983Z,8.90
2023-02-19T15:05:36.783Z,11.00
2023-02-19T15:08:12.453Z,12.10
2023-02-19T15:10:43.378Z,12.70
2023-02-19T15:13:17.509Z,10.80
2023-02-19T15:15:46.896Z,7.80
2023-02-19T15:18:21.938Z,8.30
2023-02-19T15:20:51.875Z,10.00
2023-02-19T15:23:25.532Z,10.90
2023-02-19T15:25:54.034Z,14.00
2023-02-19T15:28:34.118Z,36.30
2023-02-19T15:31:03.517Z,19.80
2023-02-19T15:33:32.495Z,9.60
2023-02-19T15:36:06.961Z,38.40
2023-02-19T15:38:35.916Z,24.30
2023-02-19T15:41:05.213Z,9.50
2023-02-19T15:43:53.968Z,8.00
2023-02-19T15:46:25.288Z,7.40
2023-02-19T15:49:13.871Z,6.00
2023-02-19T15:51:51.162Z,5.40
2023-02-19T15:54:38.126Z,3.70
2023-02-19T15:57:14.477Z,5.10
2023-02-19T15:59:51.017Z,6.80
2023-02-19T16:02:19.973Z,24.70
2023-02-19T16:04:48.399Z,17.70
2023-02-19T16:07:28.272Z,16.60
2023-02-19T16:10:26.138Z,20.60
2023-02-19T16:12:58.841Z,19.10
2023-02-19T16:15:29.348Z,16.20
2023-02-19T16:17:58.936Z,15.80
2023-02-19T16:20:33.480Z,15.50
2023-02-19T16:23:13.214Z,12.50
2023-02-19T16:25:44.670Z,11.10
2023-02-19T16:28:26.682Z,18.50
2023-02-19T16:31:00.164Z,22.30
2023-02-19T16:33:36.298Z,25.70
2023-02-19T16:36:20.605Z,25.70
2023-02-19T16:39:07.286Z,15.90
2023-02-19T16:41:48.174Z,12.90
2023-02-19T16:44:25.484Z,23.20
2023-02-19T16:46:57.415Z,15.70
2023-02-19T16:49:25.737Z,11.40
2023-02-19T16:51:54.840Z,11.90
2023-02-19T16:54:23.072Z,12.00
2023-02-19T16:56:51.203Z,9.70
2023-02-19T16:59:19.320Z,12.00
2023-02-19T17:01:48.006Z,14.10
2023-02-19T17:04:16.605Z,10.50
2023-02-19T17:06:45.798Z,10.80
2023-02-19T17:09:13.967Z,11.70
2023-02-19T17:11:42.247Z,10.90
2023-02-19T17:14:10.630Z,12.10
2023-02-19T17:16:41.982Z,11.30
2023-02-19T17:19:17.113Z,10.10
2023-02-19T17:21:46.947Z,8.90
2023-02-19T17:24:15.300Z,9.30
2023-02-19T17:26:43.448Z,13.40
2023-02-19T17:29:15.381Z,12.90
2023-02-19T17:31:43.970Z,19.80
2023-02-19T17:34:12.436Z,17.50
2023-02-19T17:36:43.458Z,16.70
2023-02-19T17:39:16.140Z,12.80
2023-02-19T17:41:44.540Z,13.30
2023-02-19T17:44:12.803Z,12.20
2023-02-19T17:46:42.034Z,10.70
2023-02-19T17:49:13.447Z,13.40
2023-02-19T17:51:41.635Z,12.00
2023-02-19T17:54:09.680Z,11.70
2023-02-19T17:56:43.323Z,12.40
2023-02-19T17:59:12.573Z,12.10
2023-02-19T18:01:40.659Z,12.50
2023-02-19T18:04:09.024Z,14.60
2023-02-19T18:06:37.746Z,12.80
2023-02-19T18:09:06.075Z,12.80
2023-02-19T18:11:35.948Z,10.50
2023-02-19T18:14:05.756Z,12.80
2023-02-19T18:16:33.824Z,10.40
2023-02-19T18:19:04.472Z,11.20
2023-02-19T18:21:32.741Z,12.10
2023-02-19T18:24:00.766Z,9.40
2023-02-19T18:26:29.007Z,9.70
2023-02-19T18:28:57.164Z,9.60
2023-02-19T18:31:25.432Z,9.40
2023-02-19T18:33:53.821Z,9.80
2023-02-19T18:36:24.561Z,23.90
2023-02-19T18:38:52.834Z,8.10
2023-02-19T18:41:21.478Z,12.20
2023-02-19T18:43:50.577Z,6.90
2023-02-19T18:46:22.378Z,11.40
2023-02-19T18:48:50.475Z,10.90
2023-02-19T18:51:21.167Z,7.80
2023-02-19T18:53:50.026Z,9.10
2023-02-19T18:56:18.439Z,9.20
2023-02-19T18:58:48.237Z,7.10
2023-02-19T19:01:18.531Z,6.60
2023-02-19T19:03:46.656Z,9.10
2023-02-19T19:06:15.082Z,8.80
2023-02-19T19:08:43.749Z,6.50
2023-02-19T19:11:12.147Z,8.10
2023-02-19T19:13:40.612Z,13.10
2023-02-19T19:16:08.917Z,10.50
2023-02-19T19:18:38.396Z,28.60
2023-02-19T19:21:06.878Z,21.80
2023-02-19T19:23:36.387Z,33.50
2023-02-19T19:26:06.255Z,41.30
2023-02-19T19:28:34.487Z,7.50
2023-02-19T19:31:03.227Z,37.50
2023-02-19T19:33:31.513Z,4.70
2023-02-19T19:35:59.927Z,4.90
2023-02-19T19:38:28.456Z,4.00
2023-02-19T19:40:56.630Z,59.20
2023-02-19T19:43:32.646Z,57.60
2023-02-19T19:46:03.488Z,156.70
2023-02-19T19:48:33.320Z,53.90
2023-02-19T19:51:01.586Z,38.00
2023-02-19T19:53:29.859Z,51.60
2023-02-19T19:55:58.165Z,43.30
2023-02-19T19:58:26.331Z,75.10
2023-02-19T20:00:55.279Z,11.30
2023-02-19T20:03:25.117Z,29.80
2023-02-19T20:05:53.803Z,8.90
2023-02-19T20:08:22.492Z,11.50
2023-02-19T20:10:50.668Z,27.10
2023-02-19T20:13:24.377Z,15.20
2023-02-19T20:15:52.798Z,9.70
2023-02-19T20:18:21.757Z,6.90
2023-02-19T20:20:49.910Z,9.80
2023-02-19T20:23:18.428Z,6.70
2023-02-19T20:25:48.935Z,25.30
2023-02-19T20:28:17.180Z,10.10
2023-02-19T20:30:45.374Z,5.60
2023-02-19T20:33:13.457Z,5.70
2023-02-19T20:35:41.720Z,7.90
2023-02-19T20:38:09.835Z,19.70
2023-02-19T20:40:38.302Z,5.80
2023-02-19T20:43:06.677Z,4.00
2023-02-19T20:45:34.955Z,4.40
2023-02-19T20:48:03.130Z,8.10
2023-02-19T20:50:31.618Z,12.80
2023-02-19T20:52:59.995Z,6.40
2023-02-19T20:55:28.989Z,6.80
2023-02-19T20:57:57.167Z,6.10
2023-02-19T21:00:25.658Z,4.10
2023-02-19T21:02:53.945Z,3.30
2023-02-19T21:05:22.826Z,2.30
2023-02-19T21:07:51.198Z,2.00
2023-02-19T21:10:19.582Z,2.40
2023-02-19T21:12:48.271Z,5.20
2023-02-19T21:15:16.935Z,2.60
2023-02-19T21:17:46.742Z,4.10
2023-02-19T21:20:18.104Z,3.90
2023-02-19T21:22:46.515Z,3.30
2023-02-19T21:25:14.880Z,2.50
2023-02-19T21:27:43.137Z,5.60
2023-02-19T21:30:11.988Z,2.10
2023-02-19T21:32:40.050Z,4.60
2023-02-19T21:35:08.812Z,4.10
2023-02-19T21:37:36.995Z,7.30
2023-02-19T21:40:06.670Z,6.80
2023-02-19T21:42:34.909Z,4.50
2023-02-19T21:45:03.979Z,6.50
2023-02-19T21:47:32.032Z,4.90
2023-02-19T21:50:00.357Z,6.70
2023-02-19T21:52:29.118Z,7.10
2023-02-19T21:54:58.311Z,12.20
2023-02-19T21:57:26.806Z,48.00
2023-02-19T21:59:55.075Z,23.50
2023-02-19T22:02:24.581Z,26.20
2023-02-19T22:04:54.318Z,7.80
2023-02-19T22:07:22.876Z,9.90
2023-02-19T22:09:52.182Z,12.00
2023-02-19T22:12:20.777Z,5.40
2023-02-19T22:14:48.816Z,19.20
2023-02-19T22:17:17.235Z,6.70
2023-02-19T22:19:45.392Z,81.40
2023-02-19T22:22:14.433Z,123.60
2023-02-19T22:24:42.426Z,104.30
2023-02-19T22:27:10.635Z,110.10
2023-02-19T22:29:39.134Z,9.00
2023-02-19T22:32:07.582Z,242.60
2023-02-19T22:34:42.760Z,226.10
2023-02-19T22:37:11.080Z,151.10
2023-02-19T22:39:39.122Z,88.10
2023-02-19T22:42:07.452Z,28.50
2023-02-19T22:44:35.667Z,10.40
2023-02-19T22:47:03.828Z,4.20
2023-02-19T22:49:32.145Z,5.50
2023-02-19T22:52:07.538Z,5.70
2023-02-19T22:54:36.551Z,5.30
2023-02-19T22:57:05.715Z,7.50
2023-02-19T22:59:33.962Z,6.40
2023-02-19T23:02:02.301Z,26.20
2023-02-19T23:04:30.469Z,28.30
2023-02-19T23:06:58.550Z,9.50
2023-02-19T23:09:29.425Z,9.20
2023-02-19T23:12:06.073Z,8.40
2023-02-19T23:14:35.598Z,5.00
2023-02-19T23:17:03.872Z,6.10
2023-02-19T23:19:32.848Z,6.00
2023-02-19T23:22:01.242Z,6.20
2023-02-19T23:24:29.403Z,7.50
2023-02-19T23:26:59.940Z,6.40
2023-02-19T23:29:30.616Z,8.80
2023-02-19T23:32:00.418Z,7.80
2023-02-19T23:34:29.030Z,8.70
2023-02-19T23:36:59.706Z,9.20
2023-02-19T23:39:28.603Z,8.30
2023-02-19T23:41:57.773Z,10.40
2023-02-19T23:44:26.295Z,9.80
2023-02-19T23:46:54.351Z,14.30
2023-02-19T23:49:23.142Z,11.80
2023-02-19T23:51:51.937Z,11.70
2023-02-19T23:54:20.377Z,13.30
2023-02-19T23:56:48.495Z,15.10
2023-02-19T23:59:16.964Z,12.00
